sensor_id;sensor_type;location;lat;lon;timestamp;P1;durP1;ratioP1;P2;durP2;ratioP2
3036;SDS011;1528;52.550;13.408;2023-02-08T00:01:05;40.93;;;37.33;;
3036;SDS011;1528;52.550;13.408;2023-02-08T00:03:52;41.50;;;37.70;;
3036;SDS011;1528;52.550;13.408;2023-02-08T00:06:37;41.87;;;38.03;;
3036;SDS011;1528;52.550;13.408;2023-02-08T00:09:24;40.60;;;37.00;;
3036;SDS011;1528;52.550;13.408;2023-02-08T00:12:09;40.87;;;37.57;;
3036;SDS011;1528;52.550;13.408;2023-02-08T00:14:55;39.50;;;36.20;;
3036;SDS011;1528;52.550;13.408;2023-02-08T00:17:41;39.40;;;35.90;;
3036;SDS011;1528;52.550;13.408;2023-02-08T00:20:27;39.97;;;36.47;;
3036;SDS011;1528;52.550;13.408;2023-02-08T00:23:12;42.57;;;38.83;;
3036;SDS011;1528;52.550;13.408;2023-02-08T00:26:00;41.57;;;37.97;;
3036;SDS011;1528;52.550;13.408;2023-02-08T00:28:45;42.33;;;38.70;;
3036;SDS011;1528;52.550;13.408;2023-02-08T00:31:31;41.60;;;38.17;;
3036;SDS011;1528;52.550;13.408;2023-02-08T00:34:16;41.10;;;37.57;;
3036;SDS011;1528;52.550;13.408;2023-02-08T00:37:02;39.73;;;36.60;;
3036;SDS011;1528;52.550;13.408;2023-02-08T00:39:47;41.40;;;38.00;;
3036;SDS011;1528;52.550;13.408;2023-02-08T00:42:35;42.90;;;39.00;;
3036;SDS011;1528;52.550;13.408;2023-02-08T00:45:20;42.70;;;38.63;;
3036;SDS011;1528;52.550;13.408;2023-02-08T00:48:06;43.70;;;39.90;;
3036;SDS011;1528;52.550;13.408;2023-02-08T00:50:58;43.50;;;39.90;;
3036;SDS011;1528;52.550;13.408;2023-02-08T00:53:45;40.90;;;36.97;;
3036;SDS011;1528;52.550;13.408;2023-02-08T00:56:30;44.13;;;40.13;;
3036;SDS011;1528;52.550;13.408;2023-02-08T00:59:17;41.40;;;37.77;;
3036;SDS011;1528;52.550;13.408;2023-02-08T01:02:03;43.43;;;39.53;;
3036;SDS011;1528;52.550;13.408;2023-02-08T01:04:48;41.33;;;37.83;;
3036;SDS011;1528;52.550;13.408;2023-02-08T01:07:34;41.97;;;38.37;;
3036;SDS011;1528;52.550;13.408;2023-02-08T01:10:20;41.90;;;38.27;;
3036;SDS011;1528;52.550;13.408;2023-02-08T01:13:06;43.17;;;39.30;;
3036;SDS011;1528;52.550;13.408;2023-02-08T01:15:53;41.93;;;38.37;;
3036;SDS011;1528;52.550;13.408;2023-02-08T01:18:41;42.67;;;38.57;;
3036;SDS011;1528;52.550;13.408;2023-02-08T01:21:28;43.37;;;39.67;;
3036;SDS011;1528;52.550;13.408;2023-02-08T01:24:15;41.33;;;37.63;;
3036;SDS011;1528;52.550;13.408;2023-02-08T01:27:01;43.73;;;40.20;;
3036;SDS011;1528;52.550;13.408;2023-02-08T01:29:47;45.17;;;41.40;;
3036;SDS011;1528;52.550;13.408;2023-02-08T01:32:34;45.17;;;41.37;;
3036;SDS011;1528;52.550;13.408;2023-02-08T01:35:19;44.07;;;40.20;;
3036;SDS011;1528;52.550;13.408;2023-02-08T01:38:05;43.93;;;39.57;;
3036;SDS011;1528;52.550;13.408;2023-02-08T01:40:51;44.47;;;40.73;;
3036;SDS011;1528;52.550;13.408;2023-02-08T01:46:44;43.40;;;39.90;;
3036;SDS011;1528;52.550;13.408;2023-02-08T01:49:35;43.90;;;40.10;;
3036;SDS011;1528;52.550;13.408;2023-02-08T01:52:22;44.83;;;41.20;;
3036;SDS011;1528;52.550;13.408;2023-02-08T01:55:12;46.63;;;42.80;;
3036;SDS011;1528;52.550;13.408;2023-02-08T01:58:00;43.83;;;39.93;;
3036;SDS011;1528;52.550;13.408;2023-02-08T02:00:50;45.00;;;40.90;;
3036;SDS011;1528;52.550;13.408;2023-02-08T02:03:35;42.27;;;38.43;;
3036;SDS011;1528;52.550;13.408;2023-02-08T02:06:23;44.60;;;40.33;;
3036;SDS011;1528;52.550;13.408;2023-02-08T02:09:13;41.93;;;38.43;;
3036;SDS011;1528;52.550;13.408;2023-02-08T02:12:04;42.80;;;38.90;;
3036;SDS011;1528;52.550;13.408;2023-02-08T02:14:52;41.13;;;37.63;;
3036;SDS011;1528;52.550;13.408;2023-02-08T02:17:38;41.70;;;38.10;;
3036;SDS011;1528;52.550;13.408;2023-02-08T02:26:57;41.30;;;37.80;;
3036;SDS011;1528;52.550;13.408;2023-02-08T02:30:09;43.47;;;39.90;;
3036;SDS011;1528;52.550;13.408;2023-02-08T02:33:31;41.00;;;37.90;;
3036;SDS011;1528;52.550;13.408;2023-02-08T02:36:24;41.07;;;37.67;;
3036;SDS011;1528;52.550;13.408;2023-02-08T02:39:19;40.30;;;36.80;;
3036;SDS011;1528;52.550;13.408;2023-02-08T02:42:11;39.23;;;36.03;;
3036;SDS011;1528;52.550;13.408;2023-02-08T02:45:19;40.20;;;36.77;;
3036;SDS011;1528;52.550;13.408;2023-02-08T02:48:16;37.27;;;34.30;;
3036;SDS011;1528;52.550;13.408;2023-02-08T02:51:11;38.17;;;35.00;;
3036;SDS011;1528;52.550;13.408;2023-02-08T02:54:02;39.93;;;36.63;;
3036;SDS011;1528;52.550;13.408;2023-02-08T02:56:52;40.03;;;36.57;;
3036;SDS011;1528;52.550;13.408;2023-02-08T02:59:42;40.60;;;37.00;;
3036;SDS011;1528;52.550;13.408;2023-02-08T03:02:29;40.83;;;37.43;;
3036;SDS011;1528;52.550;13.408;2023-02-08T03:05:15;39.40;;;35.93;;
3036;SDS011;1528;52.550;13.408;2023-02-08T03:08:07;39.97;;;36.27;;
3036;SDS011;1528;52.550;13.408;2023-02-08T03:11:08;38.60;;;35.07;;
3036;SDS011;1528;52.550;13.408;2023-02-08T03:14:12;36.97;;;33.57;;
3036;SDS011;1528;52.550;13.408;2023-02-08T03:17:22;39.37;;;36.00;;
3036;SDS011;1528;52.550;13.408;2023-02-08T03:20:19;37.10;;;33.77;;
3036;SDS011;1528;52.550;13.408;2023-02-08T03:23:11;37.87;;;34.53;;
3036;SDS011;1528;52.550;13.408;2023-02-08T03:26:06;36.20;;;32.90;;
3036;SDS011;1528;52.550;13.408;2023-02-08T03:28:59;37.20;;;33.90;;
3036;SDS011;1528;52.550;13.408;2023-02-08T03:31:50;38.27;;;35.17;;
3036;SDS011;1528;52.550;13.408;2023-02-08T03:34:42;36.53;;;33.30;;
3036;SDS011;1528;52.550;13.408;2023-02-08T03:37:34;36.33;;;33.03;;
3036;SDS011;1528;52.550;13.408;2023-02-08T03:40:24;36.43;;;33.10;;
3036;SDS011;1528;52.550;13.408;2023-02-08T03:43:13;35.10;;;32.10;;
3036;SDS011;1528;52.550;13.408;2023-02-08T03:46:04;32.93;;;30.10;;
3036;SDS011;1528;52.550;13.408;2023-02-08T03:48:55;33.57;;;30.83;;
3036;SDS011;1528;52.550;13.408;2023-02-08T03:51:43;34.57;;;31.77;;
3036;SDS011;1528;52.550;13.408;2023-02-08T03:54:30;35.17;;;32.07;;
3036;SDS011;1528;52.550;13.408;2023-02-08T03:57:22;35.50;;;32.30;;
3036;SDS011;1528;52.550;13.408;2023-02-08T04:00:11;32.80;;;29.97;;
3036;SDS011;1528;52.550;13.408;2023-02-08T04:03:00;33.67;;;30.60;;
3036;SDS011;1528;52.550;13.408;2023-02-08T04:05:50;34.27;;;31.37;;
3036;SDS011;1528;52.550;13.408;2023-02-08T04:08:36;32.10;;;29.60;;
3036;SDS011;1528;52.550;13.408;2023-02-08T04:11:22;33.07;;;30.23;;
3036;SDS011;1528;52.550;13.408;2023-02-08T04:14:08;33.23;;;30.57;;
3036;SDS011;1528;52.550;13.408;2023-02-08T04:16:54;35.60;;;32.70;;
3036;SDS011;1528;52.550;13.408;2023-02-08T04:19:39;31.93;;;29.33;;
3036;SDS011;1528;52.550;13.408;2023-02-08T04:22:25;34.63;;;31.93;;
3036;SDS011;1528;52.550;13.408;2023-02-08T04:25:11;33.47;;;30.50;;
3036;SDS011;1528;52.550;13.408;2023-02-08T04:27:56;31.97;;;29.40;;
3036;SDS011;1528;52.550;13.408;2023-02-08T04:30:43;31.27;;;28.87;;
3036;SDS011;1528;52.550;13.408;2023-02-08T04:33:29;31.80;;;29.10;;
3036;SDS011;1528;52.550;13.408;2023-02-08T04:36:14;31.97;;;29.27;;
3036;SDS011;1528;52.550;13.408;2023-02-08T04:39:00;32.83;;;30.10;;
3036;SDS011;1528;52.550;13.408;2023-02-08T04:41:45;35.57;;;32.67;;
3036;SDS011;1528;52.550;13.408;2023-02-08T04:44:31;32.57;;;29.73;;
3036;SDS011;1528;52.550;13.408;2023-02-08T04:47:18;32.60;;;29.90;;
3036;SDS011;1528;52.550;13.408;2023-02-08T04:50:04;33.17;;;30.20;;
3036;SDS011;1528;52.550;13.408;2023-02-08T04:52:50;35.27;;;31.93;;
3036;SDS011;1528;52.550;13.408;2023-02-08T04:55:35;34.07;;;30.87;;
3036;SDS011;1528;52.550;13.408;2023-02-08T04:58:21;33.13;;;30.40;;
3036;SDS011;1528;52.550;13.408;2023-02-08T05:01:07;36.77;;;33.77;;
3036;SDS011;1528;52.550;13.408;2023-02-08T05:03:55;34.57;;;31.57;;
3036;SDS011;1528;52.550;13.408;2023-02-08T05:06:40;35.40;;;32.30;;
3036;SDS011;1528;52.550;13.408;2023-02-08T05:09:26;32.10;;;29.40;;
3036;SDS011;1528;52.550;13.408;2023-02-08T05:12:11;35.63;;;32.60;;
3036;SDS011;1528;52.550;13.408;2023-02-08T05:14:57;35.00;;;32.17;;
3036;SDS011;1528;52.550;13.408;2023-02-08T05:17:43;35.63;;;32.73;;
3036;SDS011;1528;52.550;13.408;2023-02-08T05:20:30;33.27;;;30.20;;
3036;SDS011;1528;52.550;13.408;2023-02-08T05:23:16;37.23;;;34.13;;
3036;SDS011;1528;52.550;13.408;2023-02-08T05:26:04;33.57;;;30.53;;
3036;SDS011;1528;52.550;13.408;2023-02-08T05:28:50;34.20;;;31.10;;
3036;SDS011;1528;52.550;13.408;2023-02-08T05:31:36;32.93;;;29.97;;
3036;SDS011;1528;52.550;13.408;2023-02-08T05:34:21;34.50;;;31.50;;
3036;SDS011;1528;52.550;13.408;2023-02-08T05:37:09;34.63;;;31.60;;
3036;SDS011;1528;52.550;13.408;2023-02-08T05:39:54;34.67;;;31.67;;
3036;SDS011;1528;52.550;13.408;2023-02-08T05:42:40;35.53;;;32.40;;
3036;SDS011;1528;52.550;13.408;2023-02-08T05:45:27;34.07;;;31.03;;
3036;SDS011;1528;52.550;13.408;2023-02-08T05:48:13;36.90;;;33.83;;
3036;SDS011;1528;52.550;13.408;2023-02-08T05:50:58;37.37;;;34.50;;
3036;SDS011;1528;52.550;13.408;2023-02-08T05:53:45;34.30;;;31.40;;
3036;SDS011;1528;52.550;13.408;2023-02-08T05:56:31;34.90;;;31.90;;
3036;SDS011;1528;52.550;13.408;2023-02-08T05:59:17;36.73;;;33.40;;
3036;SDS011;1528;52.550;13.408;2023-02-08T06:02:02;38.03;;;34.83;;
3036;SDS011;1528;52.550;13.408;2023-02-08T06:04:48;35.10;;;31.97;;
3036;SDS011;1528;52.550;13.408;2023-02-08T06:07:34;36.40;;;33.37;;
3036;SDS011;1528;52.550;13.408;2023-02-08T06:10:20;36.03;;;33.17;;
3036;SDS011;1528;52.550;13.408;2023-02-08T06:13:06;35.27;;;32.00;;
3036;SDS011;1528;52.550;13.408;2023-02-08T06:15:52;37.83;;;34.47;;
3036;SDS011;1528;52.550;13.408;2023-02-08T06:18:37;37.77;;;34.00;;
3036;SDS011;1528;52.550;13.408;2023-02-08T06:21:23;34.63;;;31.63;;
3036;SDS011;1528;52.550;13.408;2023-02-08T06:24:09;37.63;;;34.50;;
3036;SDS011;1528;52.550;13.408;2023-02-08T06:26:56;36.07;;;32.87;;
3036;SDS011;1528;52.550;13.408;2023-02-08T06:29:42;34.67;;;31.63;;
3036;SDS011;1528;52.550;13.408;2023-02-08T06:32:27;35.70;;;32.73;;
3036;SDS011;1528;52.550;13.408;2023-02-08T06:35:13;35.73;;;32.67;;
3036;SDS011;1528;52.550;13.408;2023-02-08T06:38:01;36.80;;;33.37;;
3036;SDS011;1528;52.550;13.408;2023-02-08T06:40:47;37.83;;;34.47;;
3036;SDS011;1528;52.550;13.408;2023-02-08T06:43:34;43.10;;;39.20;;
3036;SDS011;1528;52.550;13.408;2023-02-08T06:46:19;44.63;;;40.77;;
3036;SDS011;1528;52.550;13.408;2023-02-08T06:49:05;38.70;;;35.20;;
3036;SDS011;1528;52.550;13.408;2023-02-08T06:51:51;39.10;;;35.90;;
3036;SDS011;1528;52.550;13.408;2023-02-08T06:54:36;36.30;;;33.40;;
3036;SDS011;1528;52.550;13.408;2023-02-08T06:57:22;34.93;;;31.73;;
3036;SDS011;1528;52.550;13.408;2023-02-08T07:00:10;38.83;;;35.73;;
3036;SDS011;1528;52.550;13.408;2023-02-08T07:02:57;36.87;;;33.53;;
3036;SDS011;1528;52.550;13.408;2023-02-08T07:05:43;34.37;;;31.53;;
3036;SDS011;1528;52.550;13.408;2023-02-08T07:08:28;37.67;;;34.27;;
3036;SDS011;1528;52.550;13.408;2023-02-08T07:11:14;36.07;;;32.97;;
3036;SDS011;1528;52.550;13.408;2023-02-08T07:14:02;38.87;;;35.57;;
3036;SDS011;1528;52.550;13.408;2023-02-08T07:16:49;37.10;;;33.60;;
3036;SDS011;1528;52.550;13.408;2023-02-08T07:19:35;38.20;;;34.77;;
3036;SDS011;1528;52.550;13.408;2023-02-08T07:22:21;40.20;;;36.27;;
3036;SDS011;1528;52.550;13.408;2023-02-08T07:25:07;41.63;;;37.60;;
3036;SDS011;1528;52.550;13.408;2023-02-08T07:27:53;35.97;;;32.87;;
3036;SDS011;1528;52.550;13.408;2023-02-08T07:30:39;39.10;;;35.33;;
3036;SDS011;1528;52.550;13.408;2023-02-08T07:33:26;39.37;;;36.00;;
3036;SDS011;1528;52.550;13.408;2023-02-08T07:36:11;36.73;;;33.27;;
3036;SDS011;1528;52.550;13.408;2023-02-08T07:38:57;38.80;;;35.20;;
3036;SDS011;1528;52.550;13.408;2023-02-08T07:41:42;39.40;;;35.60;;
3036;SDS011;1528;52.550;13.408;2023-02-08T07:44:28;36.03;;;32.73;;
3036;SDS011;1528;52.550;13.408;2023-02-08T07:47:14;34.83;;;31.70;;
3036;SDS011;1528;52.550;13.408;2023-02-08T07:50:01;36.03;;;32.67;;
3036;SDS011;1528;52.550;13.408;2023-02-08T07:52:46;35.97;;;32.57;;
3036;SDS011;1528;52.550;13.408;2023-02-08T07:55:32;34.03;;;31.00;;
3036;SDS011;1528;52.550;13.408;2023-02-08T07:58:18;34.10;;;30.93;;
3036;SDS011;1528;52.550;13.408;2023-02-08T08:01:04;34.30;;;31.37;;
3036;SDS011;1528;52.550;13.408;2023-02-08T08:03:50;34.93;;;31.93;;
3036;SDS011;1528;52.550;13.408;2023-02-08T08:06:37;32.00;;;29.20;;
3036;SDS011;1528;52.550;13.408;2023-02-08T08:09:23;33.63;;;30.63;;
3036;SDS011;1528;52.550;13.408;2023-02-08T08:12:09;35.97;;;32.90;;
3036;SDS011;1528;52.550;13.408;2023-02-08T08:14:54;33.27;;;30.20;;
3036;SDS011;1528;52.550;13.408;2023-02-08T08:17:40;33.70;;;30.50;;
3036;SDS011;1528;52.550;13.408;2023-02-08T08:20:26;33.87;;;30.70;;
3036;SDS011;1528;52.550;13.408;2023-02-08T08:23:13;34.40;;;31.40;;
3036;SDS011;1528;52.550;13.408;2023-02-08T08:25:59;36.03;;;32.63;;
3036;SDS011;1528;52.550;13.408;2023-02-08T08:28:45;34.00;;;31.20;;
3036;SDS011;1528;52.550;13.408;2023-02-08T08:31:31;37.40;;;34.00;;
3036;SDS011;1528;52.550;13.408;2023-02-08T08:34:16;37.77;;;34.00;;
3036;SDS011;1528;52.550;13.408;2023-02-08T08:37:02;37.00;;;33.47;;
3036;SDS011;1528;52.550;13.408;2023-02-08T08:39:49;37.13;;;33.93;;
3036;SDS011;1528;52.550;13.408;2023-02-08T08:42:35;38.30;;;34.90;;
3036;SDS011;1528;52.550;13.408;2023-02-08T08:45:22;42.13;;;38.70;;
3036;SDS011;1528;52.550;13.408;2023-02-08T08:48:07;38.77;;;35.77;;
3036;SDS011;1528;52.550;13.408;2023-02-08T08:50:53;38.03;;;34.53;;
3036;SDS011;1528;52.550;13.408;2023-02-08T08:53:39;38.07;;;34.70;;
3036;SDS011;1528;52.550;13.408;2023-02-08T08:56:26;38.07;;;34.57;;
3036;SDS011;1528;52.550;13.408;2023-02-08T08:59:11;39.03;;;35.53;;
3036;SDS011;1528;52.550;13.408;2023-02-08T09:01:57;38.13;;;34.80;;
3036;SDS011;1528;52.550;13.408;2023-02-08T09:04:43;37.57;;;34.30;;
3036;SDS011;1528;52.550;13.408;2023-02-08T09:07:28;39.40;;;36.00;;
3036;SDS011;1528;52.550;13.408;2023-02-08T09:10:14;36.90;;;33.70;;
3036;SDS011;1528;52.550;13.408;2023-02-08T09:13:01;39.27;;;35.87;;
3036;SDS011;1528;52.550;13.408;2023-02-08T09:15:47;42.77;;;38.73;;
3036;SDS011;1528;52.550;13.408;2023-02-08T09:18:34;39.43;;;35.83;;
3036;SDS011;1528;52.550;13.408;2023-02-08T09:21:21;42.27;;;38.57;;
3036;SDS011;1528;52.550;13.408;2023-02-08T09:24:08;40.53;;;37.07;;
3036;SDS011;1528;52.550;13.408;2023-02-08T09:26:54;43.20;;;39.30;;
3036;SDS011;1528;52.550;13.408;2023-02-08T09:29:41;43.13;;;38.93;;
3036;SDS011;1528;52.550;13.408;2023-02-08T09:32:29;42.50;;;38.90;;
3036;SDS011;1528;52.550;13.408;2023-02-08T09:35:16;40.07;;;36.63;;
3036;SDS011;1528;52.550;13.408;2023-02-08T09:38:04;38.00;;;34.90;;
3036;SDS011;1528;52.550;13.408;2023-02-08T09:40:52;38.87;;;35.07;;
3036;SDS011;1528;52.550;13.408;2023-02-08T09:43:47;39.40;;;35.73;;
3036;SDS011;1528;52.550;13.408;2023-02-08T09:46:42;37.80;;;34.17;;
3036;SDS011;1528;52.550;13.408;2023-02-08T09:49:35;41.77;;;38.00;;
3036;SDS011;1528;52.550;13.408;2023-02-08T09:52:26;40.93;;;37.33;;
3036;SDS011;1528;52.550;13.408;2023-02-08T09:55:20;40.80;;;37.00;;
3036;SDS011;1528;52.550;13.408;2023-02-08T09:58:16;39.83;;;36.23;;
3036;SDS011;1528;52.550;13.408;2023-02-08T10:01:09;39.10;;;35.50;;
3036;SDS011;1528;52.550;13.408;2023-02-08T10:04:05;44.20;;;40.20;;
3036;SDS011;1528;52.550;13.408;2023-02-08T10:06:58;40.93;;;37.43;;
3036;SDS011;1528;52.550;13.408;2023-02-08T10:09:46;39.77;;;36.37;;
3036;SDS011;1528;52.550;13.408;2023-02-08T10:12:36;39.67;;;36.27;;
3036;SDS011;1528;52.550;13.408;2023-02-08T10:15:28;42.17;;;38.27;;
3036;SDS011;1528;52.550;13.408;2023-02-08T10:18:27;40.90;;;36.50;;
3036;SDS011;1528;52.550;13.408;2023-02-08T10:21:26;40.70;;;37.10;;
3036;SDS011;1528;52.550;13.408;2023-02-08T10:24:36;42.47;;;38.53;;
3036;SDS011;1528;52.550;13.408;2023-02-08T10:27:48;43.03;;;39.00;;
3036;SDS011;1528;52.550;13.408;2023-02-08T10:30:46;42.30;;;38.10;;
3036;SDS011;1528;52.550;13.408;2023-02-08T10:33:40;41.43;;;37.43;;
3036;SDS011;1528;52.550;13.408;2023-02-08T10:36:34;45.13;;;40.77;;
3036;SDS011;1528;52.550;13.408;2023-02-08T10:39:25;42.13;;;38.10;;
3036;SDS011;1528;52.550;13.408;2023-02-08T10:42:14;42.43;;;38.60;;
3036;SDS011;1528;52.550;13.408;2023-02-08T10:45:03;40.57;;;36.80;;
3036;SDS011;1528;52.550;13.408;2023-02-08T10:47:59;40.83;;;37.03;;
3036;SDS011;1528;52.550;13.408;2023-02-08T10:50:49;44.40;;;40.23;;
3036;SDS011;1528;52.550;13.408;2023-02-08T10:53:36;42.30;;;38.50;;
3036;SDS011;1528;52.550;13.408;2023-02-08T10:59:32;41.60;;;38.07;;
3036;SDS011;1528;52.550;13.408;2023-02-08T11:02:26;38.30;;;34.60;;
3036;SDS011;1528;52.550;13.408;2023-02-08T11:05:16;42.83;;;39.03;;
3036;SDS011;1528;52.550;13.408;2023-02-08T11:08:08;40.73;;;36.87;;
3036;SDS011;1528;52.550;13.408;2023-02-08T11:10:57;41.40;;;37.53;;
3036;SDS011;1528;52.550;13.408;2023-02-08T11:13:44;41.73;;;37.83;;
3036;SDS011;1528;52.550;13.408;2023-02-08T11:16:35;42.10;;;38.47;;
3036;SDS011;1528;52.550;13.408;2023-02-08T11:19:28;43.30;;;39.60;;
3036;SDS011;1528;52.550;13.408;2023-02-08T11:22:18;39.70;;;36.37;;
3036;SDS011;1528;52.550;13.408;2023-02-08T11:25:06;43.90;;;40.00;;
3036;SDS011;1528;52.550;13.408;2023-02-08T11:27:54;43.13;;;39.53;;
3036;SDS011;1528;52.550;13.408;2023-02-08T11:30:39;42.43;;;38.50;;
3036;SDS011;1528;52.550;13.408;2023-02-08T11:33:26;42.93;;;38.93;;
3036;SDS011;1528;52.550;13.408;2023-02-08T11:36:12;44.10;;;40.40;;
3036;SDS011;1528;52.550;13.408;2023-02-08T11:38:59;38.17;;;34.77;;
3036;SDS011;1528;52.550;13.408;2023-02-08T11:41:46;41.53;;;37.60;;
3036;SDS011;1528;52.550;13.408;2023-02-08T11:44:36;41.27;;;37.20;;
3036;SDS011;1528;52.550;13.408;2023-02-08T11:47:27;40.80;;;36.83;;
3036;SDS011;1528;52.550;13.408;2023-02-08T11:50:20;40.23;;;36.47;;
3036;SDS011;1528;52.550;13.408;2023-02-08T11:53:16;41.20;;;37.63;;
3036;SDS011;1528;52.550;13.408;2023-02-08T11:56:14;40.47;;;36.63;;
3036;SDS011;1528;52.550;13.408;2023-02-08T11:59:03;38.97;;;35.43;;
3036;SDS011;1528;52.550;13.408;2023-02-08T12:02:06;42.10;;;38.13;;
3036;SDS011;1528;52.550;13.408;2023-02-08T12:05:11;38.97;;;35.67;;
3036;SDS011;1528;52.550;13.408;2023-02-08T12:08:03;40.60;;;37.20;;
3036;SDS011;1528;52.550;13.408;2023-02-08T12:14:09;40.83;;;37.20;;
3036;SDS011;1528;52.550;13.408;2023-02-08T12:17:10;42.47;;;38.60;;
3036;SDS011;1528;52.550;13.408;2023-02-08T12:20:25;39.97;;;36.63;;
3036;SDS011;1528;52.550;13.408;2023-02-08T12:23:26;42.60;;;38.93;;
3036;SDS011;1528;52.550;13.408;2023-02-08T12:26:28;37.47;;;34.47;;
3036;SDS011;1528;52.550;13.408;2023-02-08T12:29:33;38.30;;;34.93;;
3036;SDS011;1528;52.550;13.408;2023-02-08T12:32:40;39.63;;;36.10;;
3036;SDS011;1528;52.550;13.408;2023-02-08T12:35:53;39.40;;;35.93;;
3036;SDS011;1528;52.550;13.408;2023-02-08T12:38:58;37.83;;;34.50;;
3036;SDS011;1528;52.550;13.408;2023-02-08T12:42:30;38.10;;;34.40;;
3036;SDS011;1528;52.550;13.408;2023-02-08T12:52:02;41.40;;;37.77;;
3036;SDS011;1528;52.550;13.408;2023-02-08T12:54:59;41.47;;;37.80;;
3036;SDS011;1528;52.550;13.408;2023-02-08T12:57:50;40.63;;;37.23;;
3036;SDS011;1528;52.550;13.408;2023-02-08T13:00:38;40.57;;;37.03;;
3036;SDS011;1528;52.550;13.408;2023-02-08T13:03:29;39.77;;;36.40;;
3036;SDS011;1528;52.550;13.408;2023-02-08T13:06:21;43.13;;;39.67;;
3036;SDS011;1528;52.550;13.408;2023-02-08T13:09:13;44.77;;;40.70;;
3036;SDS011;1528;52.550;13.408;2023-02-08T13:12:05;40.40;;;36.83;;
3036;SDS011;1528;52.550;13.408;2023-02-08T13:14:59;36.93;;;33.77;;
3036;SDS011;1528;52.550;13.408;2023-02-08T13:17:50;40.37;;;36.80;;
3036;SDS011;1528;52.550;13.408;2023-02-08T13:20:39;41.37;;;37.50;;
3036;SDS011;1528;52.550;13.408;2023-02-08T13:23:28;38.97;;;35.40;;
3036;SDS011;1528;52.550;13.408;2023-02-08T13:26:18;40.07;;;36.43;;
3036;SDS011;1528;52.550;13.408;2023-02-08T13:29:13;41.90;;;38.30;;
3036;SDS011;1528;52.550;13.408;2023-02-08T13:32:02;38.97;;;35.63;;
3036;SDS011;1528;52.550;13.408;2023-02-08T13:34:52;39.87;;;36.33;;
3036;SDS011;1528;52.550;13.408;2023-02-08T13:37:45;42.77;;;39.37;;
3036;SDS011;1528;52.550;13.408;2023-02-08T13:40:36;40.70;;;37.17;;
3036;SDS011;1528;52.550;13.408;2023-02-08T13:43:23;42.27;;;38.80;;
3036;SDS011;1528;52.550;13.408;2023-02-08T13:46:16;40.50;;;36.80;;
3036;SDS011;1528;52.550;13.408;2023-02-08T13:49:03;40.10;;;36.43;;
3036;SDS011;1528;52.550;13.408;2023-02-08T13:51:50;38.23;;;34.93;;
3036;SDS011;1528;52.550;13.408;2023-02-08T13:54:40;40.30;;;36.60;;
3036;SDS011;1528;52.550;13.408;2023-02-08T13:57:50;38.27;;;35.07;;
3036;SDS011;1528;52.550;13.408;2023-02-08T14:00:41;35.50;;;32.50;;
3036;SDS011;1528;52.550;13.408;2023-02-08T14:07:27;39.97;;;36.50;;
3036;SDS011;1528;52.550;13.408;2023-02-08T14:10:26;37.97;;;34.80;;
3036;SDS011;1528;52.550;13.408;2023-02-08T14:13:24;39.40;;;36.00;;
3036;SDS011;1528;52.550;13.408;2023-02-08T14:16:21;38.57;;;35.00;;
3036;SDS011;1528;52.550;13.408;2023-02-08T14:22:16;38.17;;;34.97;;
3036;SDS011;1528;52.550;13.408;2023-02-08T14:25:03;41.23;;;37.43;;
3036;SDS011;1528;52.550;13.408;2023-02-08T14:27:51;39.67;;;36.50;;
3036;SDS011;1528;52.550;13.408;2023-02-08T14:30:40;41.37;;;37.97;;
3036;SDS011;1528;52.550;13.408;2023-02-08T14:33:28;40.47;;;37.07;;
3036;SDS011;1528;52.550;13.408;2023-02-08T14:36:23;37.97;;;34.57;;
3036;SDS011;1528;52.550;13.408;2023-02-08T14:39:22;38.60;;;35.43;;
3036;SDS011;1528;52.550;13.408;2023-02-08T14:42:11;37.33;;;34.00;;
3036;SDS011;1528;52.550;13.408;2023-02-08T14:44:59;37.73;;;34.13;;
3036;SDS011;1528;52.550;13.408;2023-02-08T14:51:02;40.03;;;36.70;;
3036;SDS011;1528;52.550;13.408;2023-02-08T14:54:01;39.23;;;35.83;;
3036;SDS011;1528;52.550;13.408;2023-02-08T14:56:59;40.30;;;36.90;;
3036;SDS011;1528;52.550;13.408;2023-02-08T14:59:47;38.13;;;34.70;;
3036;SDS011;1528;52.550;13.408;2023-02-08T15:02:33;38.07;;;34.90;;
3036;SDS011;1528;52.550;13.408;2023-02-08T15:05:27;37.20;;;33.50;;
3036;SDS011;1528;52.550;13.408;2023-02-08T15:08:18;39.87;;;36.10;;
3036;SDS011;1528;52.550;13.408;2023-02-08T15:11:08;42.37;;;38.70;;
3036;SDS011;1528;52.550;13.408;2023-02-08T15:14:15;40.70;;;37.10;;
3036;SDS011;1528;52.550;13.408;2023-02-08T15:17:03;40.70;;;37.17;;
3036;SDS011;1528;52.550;13.408;2023-02-08T15:19:49;42.00;;;38.17;;
3036;SDS011;1528;52.550;13.408;2023-02-08T15:22:37;39.23;;;35.53;;
3036;SDS011;1528;52.550;13.408;2023-02-08T15:25:24;37.33;;;34.03;;
3036;SDS011;1528;52.550;13.408;2023-02-08T15:28:16;35.37;;;32.30;;
3036;SDS011;1528;52.550;13.408;2023-02-08T15:31:03;35.23;;;32.30;;
3036;SDS011;1528;52.550;13.408;2023-02-08T15:33:52;36.23;;;33.17;;
3036;SDS011;1528;52.550;13.408;2023-02-08T15:36:43;36.13;;;33.13;;
3036;SDS011;1528;52.550;13.408;2023-02-08T15:39:35;39.23;;;35.73;;
3036;SDS011;1528;52.550;13.408;2023-02-08T15:42:23;37.53;;;34.50;;
3036;SDS011;1528;52.550;13.408;2023-02-08T15:45:24;36.67;;;33.40;;
3036;SDS011;1528;52.550;13.408;2023-02-08T15:48:14;39.03;;;35.83;;
3036;SDS011;1528;52.550;13.408;2023-02-08T15:51:00;38.67;;;35.27;;
3036;SDS011;1528;52.550;13.408;2023-02-08T15:53:47;38.33;;;35.03;;
3036;SDS011;1528;52.550;13.408;2023-02-08T15:56:38;42.00;;;38.20;;
3036;SDS011;1528;52.550;13.408;2023-02-08T15:59:25;57.63;;;53.27;;
3036;SDS011;1528;52.550;13.408;2023-02-08T16:02:17;45.43;;;41.87;;
3036;SDS011;1528;52.550;13.408;2023-02-08T16:05:15;42.57;;;39.07;;
3036;SDS011;1528;52.550;13.408;2023-02-08T16:08:04;43.43;;;39.63;;
3036;SDS011;1528;52.550;13.408;2023-02-08T16:10:51;38.63;;;35.37;;
3036;SDS011;1528;52.550;13.408;2023-02-08T16:13:40;39.40;;;36.40;;
3036;SDS011;1528;52.550;13.408;2023-02-08T16:16:36;37.20;;;33.97;;
3036;SDS011;1528;52.550;13.408;2023-02-08T16:19:25;37.70;;;34.50;;
3036;SDS011;1528;52.550;13.408;2023-02-08T16:22:21;38.93;;;35.20;;
3036;SDS011;1528;52.550;13.408;2023-02-08T16:25:22;36.23;;;33.33;;
3036;SDS011;1528;52.550;13.408;2023-02-08T16:28:16;37.47;;;34.37;;
3036;SDS011;1528;52.550;13.408;2023-02-08T16:31:12;38.93;;;35.67;;
3036;SDS011;1528;52.550;13.408;2023-02-08T16:34:06;41.50;;;37.90;;
3036;SDS011;1528;52.550;13.408;2023-02-08T16:36:59;41.23;;;37.43;;
3036;SDS011;1528;52.550;13.408;2023-02-08T16:39:52;41.33;;;37.83;;
3036;SDS011;1528;52.550;13.408;2023-02-08T16:42:39;38.60;;;35.57;;
3036;SDS011;1528;52.550;13.408;2023-02-08T16:45:26;41.33;;;38.03;;
3036;SDS011;1528;52.550;13.408;2023-02-08T16:48:32;38.97;;;35.47;;
3036;SDS011;1528;52.550;13.408;2023-02-08T16:51:32;39.43;;;36.33;;
3036;SDS011;1528;52.550;13.408;2023-02-08T16:54:18;39.00;;;35.80;;
3036;SDS011;1528;52.550;13.408;2023-02-08T16:57:05;35.63;;;32.53;;
3036;SDS011;1528;52.550;13.408;2023-02-08T16:59:51;39.10;;;35.97;;
3036;SDS011;1528;52.550;13.408;2023-02-08T17:02:39;39.23;;;35.83;;
3036;SDS011;1528;52.550;13.408;2023-02-08T17:05:26;38.20;;;34.80;;
3036;SDS011;1528;52.550;13.408;2023-02-08T17:08:14;46.20;;;42.17;;
3036;SDS011;1528;52.550;13.408;2023-02-08T17:11:02;45.33;;;41.40;;
3036;SDS011;1528;52.550;13.408;2023-02-08T17:13:47;45.70;;;41.57;;
3036;SDS011;1528;52.550;13.408;2023-02-08T17:16:35;42.70;;;39.20;;
3036;SDS011;1528;52.550;13.408;2023-02-08T17:19:22;41.00;;;37.30;;